Погода Рио Каскана неделю

Минас-Жерайс, Бразилия

22 - 28 июля
  • 22июля
    Сегодня
    +11°
    +28°
    Ясно и безоблачно
    ВремяПогодаТемператураВлажностьДавлениеВетер, м/сВероятность осадков
    00:00Ясно и безоблачно+14°C76 %732 мм1.1 м/с5 %
    03:00Ясно и безоблачно+13°C87 %732 мм1.2 м/с5 %
    06:00Ясно и безоблачно+12°C91 %732 мм1.0 м/с5 %
    09:00Пасмурно, сплошная облачность+19°C70 %734 мм1.7 м/с3 %
    12:00Ясно и безоблачно+24°C52 %734 мм1.9 м/с5 %
    15:00Ясно и безоблачно+28°C40 %732 мм0.3 м/с5 %
    18:00Ясно и безоблачно+22°C43 %732 мм0.3 м/с5 %
    21:00Ясно и безоблачно+17°C71 %732 мм1.3 м/с5 %
  • 23июля
    Вторник
    +13°
    +29°
    Ясно и безоблачно
    ВремяПогодаТемператураВлажностьДавлениеВетер, м/сВероятность осадков
    00:00Ясно и безоблачно+14°C87 %732 мм0.9 м/с5 %
    03:00Ясно и безоблачно+13°C90 %731 мм1.4 м/с5 %
    06:00Ясно и безоблачно+12°C96 %732 мм0.6 м/с5 %
    09:00Ясно и безоблачно+19°C64 %735 мм0.3 м/с5 %
    12:00Ясно и безоблачно+26°C46 %734 мм1.1 м/с5 %
    15:00Ясно и безоблачно+28°C40 %733 мм0.6 м/с5 %
    18:00Ясно и безоблачно+21°C54 %732 мм2.0 м/с5 %
    21:00Ясно и безоблачно+18°C65 %733 мм1.5 м/с5 %
  • 24июля
    Среда
    +11°
    +28°
    Практически безоблачно
    ВремяПогодаТемператураВлажностьДавлениеВетер, м/сВероятность осадков
    00:00Ясно и безоблачно+15°C75 %733 мм1.1 м/с5 %
    03:00Ясно и безоблачно+14°C83 %733 мм1.4 м/с5 %
    06:00Небольшая облачность+13°C88 %734 мм1.4 м/с5 %
    09:00Облачно с прояснениями+19°C70 %736 мм2.0 м/с3 %
    12:00Облачно с прояснениями+24°C52 %735 мм1.6 м/с6 %
    15:00Практически безоблачно+27°C41 %733 мм1.5 м/с5 %
    18:00Ясно и безоблачно+19°C55 %733 мм1.9 м/с5 %
    21:00Ясно и безоблачно+17°C69 %734 мм1.3 м/с5 %
  • 25июля
    Четверг
    +11°
    +28°
    Ясно и безоблачно
    ВремяПогодаТемператураВлажностьДавлениеВетер, м/сВероятность осадков
    00:00Ясно и безоблачно+13°C81 %733 мм1.0 м/с5 %
    03:00Ясно и безоблачно+14°C80 %733 мм1.5 м/с5 %
    06:00Облачно с прояснениями+12°C91 %733 мм1.3 м/с5 %
    09:00Практически безоблачно+19°C64 %735 мм2.2 м/с5 %
    12:00Ясно и безоблачно+25°C44 %733 мм2.8 м/с5 %
    15:00Ясно и безоблачно+28°C36 %731 мм2.1 м/с5 %
    18:00Ясно и безоблачно+19°C49 %731 мм2.1 м/с5 %
    21:00Ясно и безоблачно+17°C58 %731 мм1.8 м/с5 %
Мы используем cookies
Соглашаюсь